sensor_id;sensor_type;location;lat;lon;timestamp;P1;durP1;ratioP1;P2;durP2;ratioP2
5125;SDS011;63008;53.112;8.896;2022-09-30T00:00:20;8.27;;;7.30;;
5125;SDS011;63008;53.112;8.896;2022-09-30T00:02:22;7.30;;;6.70;;
5125;SDS011;63008;53.112;8.896;2022-09-30T00:04:24;8.03;;;7.13;;
5125;SDS011;63008;53.112;8.896;2022-09-30T00:06:25;7.60;;;6.83;;
5125;SDS011;63008;53.112;8.896;2022-09-30T00:08:28;8.77;;;7.30;;
5125;SDS011;63008;53.112;8.896;2022-09-30T00:10:29;9.40;;;6.43;;
5125;SDS011;63008;53.112;8.896;2022-09-30T00:12:30;7.73;;;7.10;;
5125;SDS011;63008;53.112;8.896;2022-09-30T00:14:31;18.20;;;8.30;;
5125;SDS011;63008;53.112;8.896;2022-09-30T00:16:34;9.87;;;7.53;;
5125;SDS011;63008;53.112;8.896;2022-09-30T00:18:36;8.60;;;7.90;;
5125;SDS011;63008;53.112;8.896;2022-09-30T00:20:38;9.40;;;8.37;;
5125;SDS011;63008;53.112;8.896;2022-09-30T00:22:40;13.30;;;8.90;;
5125;SDS011;63008;53.112;8.896;2022-09-30T00:24:41;9.57;;;8.00;;
5125;SDS011;63008;53.112;8.896;2022-09-30T00:26:42;8.90;;;8.10;;
5125;SDS011;63008;53.112;8.896;2022-09-30T00:28:44;7.80;;;7.20;;
5125;SDS011;63008;53.112;8.896;2022-09-30T00:30:49;8.83;;;8.07;;
5125;SDS011;63008;53.112;8.896;2022-09-30T00:32:50;11.57;;;8.77;;
5125;SDS011;63008;53.112;8.896;2022-09-30T00:34:51;9.50;;;8.63;;
5125;SDS011;63008;53.112;8.896;2022-09-30T00:36:53;9.30;;;8.50;;
5125;SDS011;63008;53.112;8.896;2022-09-30T00:38:56;9.37;;;8.60;;
5125;SDS011;63008;53.112;8.896;2022-09-30T00:40:57;10.23;;;8.13;;
5125;SDS011;63008;53.112;8.896;2022-09-30T00:43:01;9.93;;;9.03;;
5125;SDS011;63008;53.112;8.896;2022-09-30T00:45:04;10.23;;;9.23;;
5125;SDS011;63008;53.112;8.896;2022-09-30T00:49:28;9.37;;;8.47;;
5125;SDS011;63008;53.112;8.896;2022-09-30T00:51:30;10.13;;;9.13;;
5125;SDS011;63008;53.112;8.896;2022-09-30T00:53:37;10.90;;;9.33;;
5125;SDS011;63008;53.112;8.896;2022-09-30T00:55:56;10.90;;;9.20;;
5125;SDS011;63008;53.112;8.896;2022-09-30T00:58:02;10.53;;;9.30;;
5125;SDS011;63008;53.112;8.896;2022-09-30T01:00:05;12.53;;;9.07;;
5125;SDS011;63008;53.112;8.896;2022-09-30T01:02:08;10.03;;;9.17;;
5125;SDS011;63008;53.112;8.896;2022-09-30T01:06:17;11.23;;;9.30;;
5125;SDS011;63008;53.112;8.896;2022-09-30T01:08:19;11.27;;;9.80;;
5125;SDS011;63008;53.112;8.896;2022-09-30T01:10:21;10.87;;;9.67;;
5125;SDS011;63008;53.112;8.896;2022-09-30T01:12:23;10.77;;;9.30;;
5125;SDS011;63008;53.112;8.896;2022-09-30T01:14:26;11.40;;;9.17;;
5125;SDS011;63008;53.112;8.896;2022-09-30T01:19:08;10.63;;;9.63;;
5125;SDS011;63008;53.112;8.896;2022-09-30T01:35:50;11.23;;;9.20;;
5125;SDS011;63008;53.112;8.896;2022-09-30T01:38:28;10.33;;;9.00;;
5125;SDS011;63008;53.112;8.896;2022-09-30T01:47:26;9.43;;;8.63;;
5125;SDS011;63008;53.112;8.896;2022-09-30T01:49:34;10.40;;;9.30;;
5125;SDS011;63008;53.112;8.896;2022-09-30T01:51:44;10.03;;;9.03;;
5125;SDS011;63008;53.112;8.896;2022-09-30T01:53:54;10.50;;;9.40;;
5125;SDS011;63008;53.112;8.896;2022-09-30T01:56:01;11.00;;;9.87;;
5125;SDS011;63008;53.112;8.896;2022-09-30T01:58:09;10.23;;;9.23;;
5125;SDS011;63008;53.112;8.896;2022-09-30T02:00:17;11.33;;;10.33;;
5125;SDS011;63008;53.112;8.896;2022-09-30T02:02:20;10.27;;;9.17;;
5125;SDS011;63008;53.112;8.896;2022-09-30T02:04:34;10.97;;;9.90;;
5125;SDS011;63008;53.112;8.896;2022-09-30T02:06:44;10.50;;;9.50;;
5125;SDS011;63008;53.112;8.896;2022-09-30T02:08:52;10.93;;;9.93;;
5125;SDS011;63008;53.112;8.896;2022-09-30T02:10:59;9.90;;;8.63;;
5125;SDS011;63008;53.112;8.896;2022-09-30T02:13:10;10.17;;;9.27;;
5125;SDS011;63008;53.112;8.896;2022-09-30T02:15:21;10.67;;;9.63;;
5125;SDS011;63008;53.112;8.896;2022-09-30T02:17:27;12.23;;;11.10;;
5125;SDS011;63008;53.112;8.896;2022-09-30T02:19:40;13.50;;;12.07;;
5125;SDS011;63008;53.112;8.896;2022-09-30T02:21:52;13.87;;;12.20;;
5125;SDS011;63008;53.112;8.896;2022-09-30T02:23:59;12.33;;;11.10;;
5125;SDS011;63008;53.112;8.896;2022-09-30T02:28:21;12.20;;;11.10;;
5125;SDS011;63008;53.112;8.896;2022-09-30T02:30:26;12.77;;;11.63;;
5125;SDS011;63008;53.112;8.896;2022-09-30T02:32:29;12.43;;;11.37;;
5125;SDS011;63008;53.112;8.896;2022-09-30T02:34:36;14.67;;;13.17;;
5125;SDS011;63008;53.112;8.896;2022-09-30T02:36:52;13.67;;;12.27;;
5125;SDS011;63008;53.112;8.896;2022-09-30T02:39:04;14.57;;;13.07;;
5125;SDS011;63008;53.112;8.896;2022-09-30T02:41:14;14.87;;;13.40;;
5125;SDS011;63008;53.112;8.896;2022-09-30T02:43:23;16.90;;;13.60;;
5125;SDS011;63008;53.112;8.896;2022-09-30T02:45:27;16.23;;;14.63;;
5125;SDS011;63008;53.112;8.896;2022-09-30T02:49:48;16.47;;;14.70;;
5125;SDS011;63008;53.112;8.896;2022-09-30T02:56:40;15.43;;;14.03;;
5125;SDS011;63008;53.112;8.896;2022-09-30T02:58:45;14.40;;;12.77;;
5125;SDS011;63008;53.112;8.896;2022-09-30T03:00:47;16.20;;;14.57;;
5125;SDS011;63008;53.112;8.896;2022-09-30T03:02:52;14.87;;;13.30;;
5125;SDS011;63008;53.112;8.896;2022-09-30T03:04:57;13.67;;;12.43;;
5125;SDS011;63008;53.112;8.896;2022-09-30T03:06:58;14.10;;;12.80;;
5125;SDS011;63008;53.112;8.896;2022-09-30T03:08:59;17.37;;;13.43;;
5125;SDS011;63008;53.112;8.896;2022-09-30T03:11:00;14.50;;;13.20;;
5125;SDS011;63008;53.112;8.896;2022-09-30T03:13:13;16.40;;;14.63;;
5125;SDS011;63008;53.112;8.896;2022-09-30T03:15:45;18.27;;;14.43;;
5125;SDS011;63008;53.112;8.896;2022-09-30T03:18:09;15.03;;;13.53;;
5125;SDS011;63008;53.112;8.896;2022-09-30T03:20:30;15.07;;;13.57;;
5125;SDS011;63008;53.112;8.896;2022-09-30T03:29:43;14.67;;;13.27;;
5125;SDS011;63008;53.112;8.896;2022-09-30T03:34:20;14.83;;;13.40;;
5125;SDS011;63008;53.112;8.896;2022-09-30T03:36:33;16.37;;;13.50;;
5125;SDS011;63008;53.112;8.896;2022-09-30T03:48:02;14.47;;;13.17;;
5125;SDS011;63008;53.112;8.896;2022-09-30T03:50:07;18.13;;;14.50;;
5125;SDS011;63008;53.112;8.896;2022-09-30T03:52:11;14.17;;;12.87;;
5125;SDS011;63008;53.112;8.896;2022-09-30T03:54:14;15.20;;;13.60;;
5125;SDS011;63008;53.112;8.896;2022-09-30T03:56:23;15.03;;;13.43;;
5125;SDS011;63008;53.112;8.896;2022-09-30T03:58:27;17.43;;;13.50;;
5125;SDS011;63008;53.112;8.896;2022-09-30T04:00:29;14.97;;;13.47;;
5125;SDS011;63008;53.112;8.896;2022-09-30T04:02:32;16.43;;;13.90;;
5125;SDS011;63008;53.112;8.896;2022-09-30T04:04:37;16.13;;;13.77;;
5125;SDS011;63008;53.112;8.896;2022-09-30T04:06:39;14.83;;;13.43;;
5125;SDS011;63008;53.112;8.896;2022-09-30T04:08:41;17.00;;;15.00;;
5125;SDS011;63008;53.112;8.896;2022-09-30T04:10:43;15.87;;;14.23;;
5125;SDS011;63008;53.112;8.896;2022-09-30T04:12:47;15.83;;;14.33;;
5125;SDS011;63008;53.112;8.896;2022-09-30T04:14:48;18.07;;;15.00;;
5125;SDS011;63008;53.112;8.896;2022-09-30T04:16:49;15.80;;;14.10;;
5125;SDS011;63008;53.112;8.896;2022-09-30T04:18:50;21.60;;;17.30;;
5125;SDS011;63008;53.112;8.896;2022-09-30T04:20:51;15.50;;;13.90;;
5125;SDS011;63008;53.112;8.896;2022-09-30T04:22:55;16.00;;;14.33;;
5125;SDS011;63008;53.112;8.896;2022-09-30T04:24:57;17.23;;;14.53;;
5125;SDS011;63008;53.112;8.896;2022-09-30T04:26:58;20.87;;;14.77;;
5125;SDS011;63008;53.112;8.896;2022-09-30T04:28:59;15.80;;;13.47;;
5125;SDS011;63008;53.112;8.896;2022-09-30T04:31:01;17.43;;;15.37;;
5125;SDS011;63008;53.112;8.896;2022-09-30T04:33:03;17.43;;;15.47;;
5125;SDS011;63008;53.112;8.896;2022-09-30T04:35:04;20.00;;;17.80;;
5125;SDS011;63008;53.112;8.896;2022-09-30T04:37:05;18.37;;;16.47;;
5125;SDS011;63008;53.112;8.896;2022-09-30T04:39:06;19.30;;;16.50;;
5125;SDS011;63008;53.112;8.896;2022-09-30T04:41:08;19.50;;;16.53;;
5125;SDS011;63008;53.112;8.896;2022-09-30T04:43:16;17.50;;;15.70;;
5125;SDS011;63008;53.112;8.896;2022-09-30T04:45:25;18.50;;;15.27;;
5125;SDS011;63008;53.112;8.896;2022-09-30T04:47:26;19.83;;;14.30;;
5125;SDS011;63008;53.112;8.896;2022-09-30T04:49:27;18.57;;;15.30;;
5125;SDS011;63008;53.112;8.896;2022-09-30T04:51:28;24.67;;;17.83;;
5125;SDS011;63008;53.112;8.896;2022-09-30T04:53:29;19.33;;;16.73;;
5125;SDS011;63008;53.112;8.896;2022-09-30T04:55:30;26.57;;;19.53;;
5125;SDS011;63008;53.112;8.896;2022-09-30T04:57:31;23.00;;;19.17;;
5125;SDS011;63008;53.112;8.896;2022-09-30T04:59:32;23.83;;;19.77;;
5125;SDS011;63008;53.112;8.896;2022-09-30T05:01:34;28.10;;;22.00;;
5125;SDS011;63008;53.112;8.896;2022-09-30T05:03:35;24.00;;;20.87;;
5125;SDS011;63008;53.112;8.896;2022-09-30T05:05:36;21.67;;;18.77;;
5125;SDS011;63008;53.112;8.896;2022-09-30T05:07:37;22.97;;;19.70;;
5125;SDS011;63008;53.112;8.896;2022-09-30T05:09:38;24.53;;;19.03;;
5125;SDS011;63008;53.112;8.896;2022-09-30T05:11:39;21.13;;;18.93;;
5125;SDS011;63008;53.112;8.896;2022-09-30T05:13:42;20.00;;;17.90;;
5125;SDS011;63008;53.112;8.896;2022-09-30T05:15:49;21.37;;;19.10;;
5125;SDS011;63008;53.112;8.896;2022-09-30T05:17:51;21.23;;;18.03;;
5125;SDS011;63008;53.112;8.896;2022-09-30T05:19:53;19.93;;;16.20;;
5125;SDS011;63008;53.112;8.896;2022-09-30T05:21:54;23.53;;;17.90;;
5125;SDS011;63008;53.112;8.896;2022-09-30T05:23:55;19.07;;;17.03;;
5125;SDS011;63008;53.112;8.896;2022-09-30T05:25:56;18.60;;;16.57;;
5125;SDS011;63008;53.112;8.896;2022-09-30T05:27:58;20.83;;;17.03;;
5125;SDS011;63008;53.112;8.896;2022-09-30T05:29:59;19.00;;;16.77;;
5125;SDS011;63008;53.112;8.896;2022-09-30T05:32:00;21.43;;;17.20;;
5125;SDS011;63008;53.112;8.896;2022-09-30T05:34:01;20.30;;;16.50;;
5125;SDS011;63008;53.112;8.896;2022-09-30T05:36:03;19.80;;;16.40;;
5125;SDS011;63008;53.112;8.896;2022-09-30T05:38:06;18.70;;;15.80;;
5125;SDS011;63008;53.112;8.896;2022-09-30T05:40:07;21.40;;;17.37;;
5125;SDS011;63008;53.112;8.896;2022-09-30T05:42:09;20.50;;;17.17;;
5125;SDS011;63008;53.112;8.896;2022-09-30T05:44:10;22.10;;;16.87;;
5125;SDS011;63008;53.112;8.896;2022-09-30T05:46:11;20.27;;;18.07;;
5125;SDS011;63008;53.112;8.896;2022-09-30T05:48:12;19.27;;;16.80;;
5125;SDS011;63008;53.112;8.896;2022-09-30T05:50:13;23.60;;;17.97;;
5125;SDS011;63008;53.112;8.896;2022-09-30T05:52:15;26.13;;;18.70;;
5125;SDS011;63008;53.112;8.896;2022-09-30T05:54:16;22.27;;;18.80;;
5125;SDS011;63008;53.112;8.896;2022-09-30T05:56:17;24.20;;;19.77;;
5125;SDS011;63008;53.112;8.896;2022-09-30T05:58:18;26.80;;;19.27;;
5125;SDS011;63008;53.112;8.896;2022-09-30T06:00:20;21.30;;;18.87;;
5125;SDS011;63008;53.112;8.896;2022-09-30T06:02:22;24.50;;;19.17;;
5125;SDS011;63008;53.112;8.896;2022-09-30T06:04:23;23.43;;;19.70;;
5125;SDS011;63008;53.112;8.896;2022-09-30T06:06:24;24.40;;;20.63;;
5125;SDS011;63008;53.112;8.896;2022-09-30T06:08:26;23.23;;;19.77;;
5125;SDS011;63008;53.112;8.896;2022-09-30T06:10:27;24.40;;;21.60;;
5125;SDS011;63008;53.112;8.896;2022-09-30T06:12:29;27.73;;;20.73;;
5125;SDS011;63008;53.112;8.896;2022-09-30T06:14:30;37.40;;;21.30;;
5125;SDS011;63008;53.112;8.896;2022-09-30T06:16:32;25.80;;;20.93;;
5125;SDS011;63008;53.112;8.896;2022-09-30T06:18:33;27.53;;;21.83;;
5125;SDS011;63008;53.112;8.896;2022-09-30T06:20:35;25.07;;;21.83;;
5125;SDS011;63008;53.112;8.896;2022-09-30T06:22:36;29.37;;;21.60;;
5125;SDS011;63008;53.112;8.896;2022-09-30T06:24:38;30.90;;;22.67;;
5125;SDS011;63008;53.112;8.896;2022-09-30T06:26:39;27.83;;;22.37;;
5125;SDS011;63008;53.112;8.896;2022-09-30T06:28:41;23.87;;;21.20;;
5125;SDS011;63008;53.112;8.896;2022-09-30T06:30:43;26.37;;;22.97;;
5125;SDS011;63008;53.112;8.896;2022-09-30T06:32:44;25.50;;;21.30;;
5125;SDS011;63008;53.112;8.896;2022-09-30T06:34:46;26.03;;;22.20;;
5125;SDS011;63008;53.112;8.896;2022-09-30T06:36:48;25.30;;;22.30;;
5125;SDS011;63008;53.112;8.896;2022-09-30T06:38:49;27.93;;;22.70;;
5125;SDS011;63008;53.112;8.896;2022-09-30T06:40:53;31.07;;;24.13;;
5125;SDS011;63008;53.112;8.896;2022-09-30T06:42:58;26.67;;;23.30;;
5125;SDS011;63008;53.112;8.896;2022-09-30T06:44:59;27.70;;;22.73;;
5125;SDS011;63008;53.112;8.896;2022-09-30T06:47:00;37.93;;;23.23;;
5125;SDS011;63008;53.112;8.896;2022-09-30T06:49:01;33.37;;;23.67;;
5125;SDS011;63008;53.112;8.896;2022-09-30T06:51:04;31.57;;;25.43;;
5125;SDS011;63008;53.112;8.896;2022-09-30T06:53:05;32.10;;;25.10;;
5125;SDS011;63008;53.112;8.896;2022-09-30T06:55:08;33.93;;;26.07;;
5125;SDS011;63008;53.112;8.896;2022-09-30T06:57:09;29.73;;;26.20;;
5125;SDS011;63008;53.112;8.896;2022-09-30T06:59:10;31.57;;;25.20;;
5125;SDS011;63008;53.112;8.896;2022-09-30T07:01:11;28.73;;;25.20;;
5125;SDS011;63008;53.112;8.896;2022-09-30T07:03:21;29.63;;;23.80;;
5125;SDS011;63008;53.112;8.896;2022-09-30T07:05:25;33.20;;;23.57;;
5125;SDS011;63008;53.112;8.896;2022-09-30T07:07:26;31.07;;;24.37;;
5125;SDS011;63008;53.112;8.896;2022-09-30T07:09:27;31.60;;;24.63;;
5125;SDS011;63008;53.112;8.896;2022-09-30T07:11:28;27.53;;;23.57;;
5125;SDS011;63008;53.112;8.896;2022-09-30T07:13:29;28.60;;;23.57;;
5125;SDS011;63008;53.112;8.896;2022-09-30T07:15:31;26.87;;;24.07;;
5125;SDS011;63008;53.112;8.896;2022-09-30T07:17:32;25.80;;;21.57;;
5125;SDS011;63008;53.112;8.896;2022-09-30T07:19:33;23.63;;;21.07;;
5125;SDS011;63008;53.112;8.896;2022-09-30T07:21:34;24.00;;;20.73;;
5125;SDS011;63008;53.112;8.896;2022-09-30T07:23:35;25.93;;;22.57;;
5125;SDS011;63008;53.112;8.896;2022-09-30T07:25:36;27.50;;;22.27;;
5125;SDS011;63008;53.112;8.896;2022-09-30T07:27:38;30.60;;;22.13;;
5125;SDS011;63008;53.112;8.896;2022-09-30T07:31:08;29.07;;;23.20;;
5125;SDS011;63008;53.112;8.896;2022-09-30T07:33:11;28.67;;;22.57;;
5125;SDS011;63008;53.112;8.896;2022-09-30T07:35:16;26.30;;;23.27;;
5125;SDS011;63008;53.112;8.896;2022-09-30T07:37:18;26.10;;;21.57;;
5125;SDS011;63008;53.112;8.896;2022-09-30T07:39:20;24.33;;;21.07;;
5125;SDS011;63008;53.112;8.896;2022-09-30T07:41:25;23.97;;;21.23;;
5125;SDS011;63008;53.112;8.896;2022-09-30T07:43:29;23.60;;;20.30;;
5125;SDS011;63008;53.112;8.896;2022-09-30T07:45:40;22.23;;;19.70;;
5125;SDS011;63008;53.112;8.896;2022-09-30T07:47:41;21.83;;;19.43;;
5125;SDS011;63008;53.112;8.896;2022-09-30T07:49:42;20.33;;;18.23;;
5125;SDS011;63008;53.112;8.896;2022-09-30T07:51:44;25.57;;;19.80;;
5125;SDS011;63008;53.112;8.896;2022-09-30T07:53:46;19.47;;;17.57;;
5125;SDS011;63008;53.112;8.896;2022-09-30T07:55:49;21.63;;;16.20;;
5125;SDS011;63008;53.112;8.896;2022-09-30T07:57:50;19.63;;;17.60;;
5125;SDS011;63008;53.112;8.896;2022-09-30T07:59:51;20.17;;;17.70;;
5125;SDS011;63008;53.112;8.896;2022-09-30T08:01:52;16.40;;;14.80;;
5125;SDS011;63008;53.112;8.896;2022-09-30T08:04:44;23.57;;;16.30;;
5125;SDS011;63008;53.112;8.896;2022-09-30T08:06:56;18.07;;;16.17;;
5125;SDS011;63008;53.112;8.896;2022-09-30T08:08:59;18.07;;;16.27;;
5125;SDS011;63008;53.112;8.896;2022-09-30T08:11:01;20.80;;;16.07;;
5125;SDS011;63008;53.112;8.896;2022-09-30T08:13:03;19.10;;;15.73;;
5125;SDS011;63008;53.112;8.896;2022-09-30T08:15:04;18.47;;;16.37;;
5125;SDS011;63008;53.112;8.896;2022-09-30T08:17:09;18.93;;;15.93;;
5125;SDS011;63008;53.112;8.896;2022-09-30T08:19:14;15.70;;;14.17;;
5125;SDS011;63008;53.112;8.896;2022-09-30T08:21:18;19.10;;;14.17;;
5125;SDS011;63008;53.112;8.896;2022-09-30T08:23:19;16.83;;;15.03;;
5125;SDS011;63008;53.112;8.896;2022-09-30T08:25:21;15.30;;;12.83;;
5125;SDS011;63008;53.112;8.896;2022-09-30T08:27:22;14.53;;;12.77;;
5125;SDS011;63008;53.112;8.896;2022-09-30T08:29:23;15.23;;;12.87;;
5125;SDS011;63008;53.112;8.896;2022-09-30T08:31:24;12.50;;;11.30;;
5125;SDS011;63008;53.112;8.896;2022-09-30T08:33:27;11.40;;;10.20;;
5125;SDS011;63008;53.112;8.896;2022-09-30T08:35:28;12.37;;;11.07;;
5125;SDS011;63008;53.112;8.896;2022-09-30T08:37:29;11.03;;;9.97;;
5125;SDS011;63008;53.112;8.896;2022-09-30T08:39:30;10.83;;;9.80;;
5125;SDS011;63008;53.112;8.896;2022-09-30T08:43:39;10.17;;;9.20;;
5125;SDS011;63008;53.112;8.896;2022-09-30T08:49:04;9.40;;;7.23;;
5125;SDS011;63008;53.112;8.896;2022-09-30T08:53:25;7.73;;;6.97;;
5125;SDS011;63008;53.112;8.896;2022-09-30T08:55:48;7.40;;;6.80;;
5125;SDS011;63008;53.112;8.896;2022-09-30T08:57:50;13.40;;;7.63;;
5125;SDS011;63008;53.112;8.896;2022-09-30T08:59:54;8.50;;;7.73;;
5125;SDS011;63008;53.112;8.896;2022-09-30T09:02:11;8.13;;;7.33;;
5125;SDS011;63008;53.112;8.896;2022-09-30T09:04:32;6.93;;;6.23;;
5125;SDS011;63008;53.112;8.896;2022-09-30T09:09:00;8.80;;;7.20;;
5125;SDS011;63008;53.112;8.896;2022-09-30T09:11:25;9.53;;;6.53;;
5125;SDS011;63008;53.112;8.896;2022-09-30T09:18:07;8.90;;;6.70;;
5125;SDS011;63008;53.112;8.896;2022-09-30T09:20:38;7.33;;;6.57;;
5125;SDS011;63008;53.112;8.896;2022-09-30T09:22:48;7.07;;;6.43;;
5125;SDS011;63008;53.112;8.896;2022-09-30T09:25:16;7.40;;;6.80;;
5125;SDS011;63008;53.112;8.896;2022-09-30T09:27:22;7.43;;;6.73;;
5125;SDS011;63008;53.112;8.896;2022-09-30T09:31:36;7.40;;;6.80;;
5125;SDS011;63008;53.112;8.896;2022-09-30T09:33:38;8.17;;;6.67;;
5125;SDS011;63008;53.112;8.896;2022-09-30T09:35:47;7.37;;;6.77;;
5125;SDS011;63008;53.112;8.896;2022-09-30T09:40:30;6.40;;;5.83;;
5125;SDS011;63008;53.112;8.896;2022-09-30T09:42:44;5.70;;;5.30;;
5125;SDS011;63008;53.112;8.896;2022-09-30T09:44:59;6.97;;;6.37;;
5125;SDS011;63008;53.112;8.896;2022-09-30T09:47:08;7.63;;;6.50;;
5125;SDS011;63008;53.112;8.896;2022-09-30T09:53:36;8.03;;;6.00;;
5125;SDS011;63008;53.112;8.896;2022-09-30T09:55:44;6.30;;;5.70;;
5125;SDS011;63008;53.112;8.896;2022-09-30T09:57:46;6.77;;;5.80;;
5125;SDS011;63008;53.112;8.896;2022-09-30T09:59:54;5.97;;;5.37;;
5125;SDS011;63008;53.112;8.896;2022-09-30T10:01:59;5.20;;;4.70;;
5125;SDS011;63008;53.112;8.896;2022-09-30T10:04:33;5.87;;;5.30;;
5125;SDS011;63008;53.112;8.896;2022-09-30T10:06:39;10.80;;;5.83;;
5125;SDS011;63008;53.112;8.896;2022-09-30T10:08:55;6.00;;;5.03;;
5125;SDS011;63008;53.112;8.896;2022-09-30T10:11:06;6.83;;;5.30;;
5125;SDS011;63008;53.112;8.896;2022-09-30T10:13:21;7.80;;;5.20;;
5125;SDS011;63008;53.112;8.896;2022-09-30T10:15:40;6.00;;;5.40;;
5125;SDS011;63008;53.112;8.896;2022-09-30T10:17:42;5.37;;;4.80;;
5125;SDS011;63008;53.112;8.896;2022-09-30T10:19:52;5.60;;;5.10;;
5125;SDS011;63008;53.112;8.896;2022-09-30T10:26:44;7.57;;;5.87;;
5125;SDS011;63008;53.112;8.896;2022-09-30T10:28:47;9.70;;;5.43;;
5125;SDS011;63008;53.112;8.896;2022-09-30T10:31:03;7.40;;;5.20;;
5125;SDS011;63008;53.112;8.896;2022-09-30T10:33:18;6.40;;;5.83;;
5125;SDS011;63008;53.112;8.896;2022-09-30T10:35:25;6.50;;;5.90;;
5125;SDS011;63008;53.112;8.896;2022-09-30T10:37:26;7.77;;;7.07;;
5125;SDS011;63008;53.112;8.896;2022-09-30T10:39:31;11.33;;;6.63;;
5125;SDS011;63008;53.112;8.896;2022-09-30T10:41:36;7.90;;;5.60;;
5125;SDS011;63008;53.112;8.896;2022-09-30T10:43:46;6.37;;;5.77;;
5125;SDS011;63008;53.112;8.896;2022-09-30T10:45:51;4.70;;;4.37;;
5125;SDS011;63008;53.112;8.896;2022-09-30T10:47:53;5.93;;;4.83;;
5125;SDS011;63008;53.112;8.896;2022-09-30T10:50:05;7.17;;;4.50;;
5125;SDS011;63008;53.112;8.896;2022-09-30T10:52:15;4.33;;;3.83;;
5125;SDS011;63008;53.112;8.896;2022-09-30T10:54:35;4.13;;;3.93;;
5125;SDS011;63008;53.112;8.896;2022-09-30T10:56:46;4.40;;;3.70;;
5125;SDS011;63008;53.112;8.896;2022-09-30T10:58:52;4.40;;;4.20;;
5125;SDS011;63008;53.112;8.896;2022-09-30T11:00:58;4.60;;;4.20;;
5125;SDS011;63008;53.112;8.896;2022-09-30T11:03:19;6.20;;;3.90;;
5125;SDS011;63008;53.112;8.896;2022-09-30T11:05:28;4.37;;;4.07;;
5125;SDS011;63008;53.112;8.896;2022-09-30T11:09:56;5.13;;;4.70;;
5125;SDS011;63008;53.112;8.896;2022-09-30T11:12:20;5.40;;;5.00;;
5125;SDS011;63008;53.112;8.896;2022-09-30T11:14:43;5.57;;;5.17;;
5125;SDS011;63008;53.112;8.896;2022-09-30T11:19:25;5.73;;;5.23;;
5125;SDS011;63008;53.112;8.896;2022-09-30T11:24:00;6.97;;;6.37;;
5125;SDS011;63008;53.112;8.896;2022-09-30T11:28:30;8.63;;;7.27;;
5125;SDS011;63008;53.112;8.896;2022-09-30T11:37:31;8.20;;;6.60;;
5125;SDS011;63008;53.112;8.896;2022-09-30T11:40:02;11.13;;;6.13;;
5125;SDS011;63008;53.112;8.896;2022-09-30T11:42:23;9.43;;;6.00;;
5125;SDS011;63008;53.112;8.896;2022-09-30T11:46:53;7.43;;;6.60;;
5125;SDS011;63008;53.112;8.896;2022-09-30T11:53:29;6.73;;;6.13;;
5125;SDS011;63008;53.112;8.896;2022-09-30T11:56:15;9.77;;;6.33;;
5125;SDS011;63008;53.112;8.896;2022-09-30T12:00:34;7.10;;;5.80;;
5125;SDS011;63008;53.112;8.896;2022-09-30T12:02:47;6.67;;;6.03;;
5125;SDS011;63008;53.112;8.896;2022-09-30T12:04:51;7.30;;;6.00;;
5125;SDS011;63008;53.112;8.896;2022-09-30T12:06:59;6.37;;;5.70;;
5125;SDS011;63008;53.112;8.896;2022-09-30T12:09:08;9.37;;;6.40;;
5125;SDS011;63008;53.112;8.896;2022-09-30T12:11:40;7.77;;;7.00;;
5125;SDS011;63008;53.112;8.896;2022-09-30T12:13:48;6.67;;;6.13;;
5125;SDS011;63008;53.112;8.896;2022-09-30T12:15:55;7.77;;;6.60;;
5125;SDS011;63008;53.112;8.896;2022-09-30T12:17:59;7.57;;;6.87;;
5125;SDS011;63008;53.112;8.896;2022-09-30T12:20:16;6.07;;;5.60;;
5125;SDS011;63008;53.112;8.896;2022-09-30T12:22:23;6.50;;;6.00;;
5125;SDS011;63008;53.112;8.896;2022-09-30T12:24:36;8.00;;;6.70;;
5125;SDS011;63008;53.112;8.896;2022-09-30T12:26:40;8.77;;;7.30;;
5125;SDS011;63008;53.112;8.896;2022-09-30T12:31:12;7.33;;;6.73;;
5125;SDS011;63008;53.112;8.896;2022-09-30T12:33:19;6.80;;;6.17;;
5125;SDS011;63008;53.112;8.896;2022-09-30T12:42:50;6.33;;;5.83;;
5125;SDS011;63008;53.112;8.896;2022-09-30T12:48:04;9.13;;;7.17;;
5125;SDS011;63008;53.112;8.896;2022-09-30T12:50:10;11.90;;;6.20;;
5125;SDS011;63008;53.112;8.896;2022-09-30T12:52:16;9.47;;;6.50;;
5125;SDS011;63008;53.112;8.896;2022-09-30T12:54:22;7.90;;;7.10;;
5125;SDS011;63008;53.112;8.896;2022-09-30T12:56:45;9.00;;;6.40;;
5125;SDS011;63008;53.112;8.896;2022-09-30T12:58:53;8.47;;;6.80;;
5125;SDS011;63008;53.112;8.896;2022-09-30T13:00:58;7.50;;;6.80;;
5125;SDS011;63008;53.112;8.896;2022-09-30T13:07:32;5.50;;;5.00;;
5125;SDS011;63008;53.112;8.896;2022-09-30T13:19:17;6.77;;;6.17;;
5125;SDS011;63008;53.112;8.896;2022-09-30T13:21:21;9.20;;;6.00;;
5125;SDS011;63008;53.112;8.896;2022-09-30T13:23:34;7.63;;;6.70;;
5125;SDS011;63008;53.112;8.896;2022-09-30T13:25:52;8.23;;;7.30;;
5125;SDS011;63008;53.112;8.896;2022-09-30T13:30:34;8.73;;;6.80;;
5125;SDS011;63008;53.112;8.896;2022-09-30T13:32:36;9.47;;;6.93;;
5125;SDS011;63008;53.112;8.896;2022-09-30T13:34:48;10.23;;;6.63;;
5125;SDS011;63008;53.112;8.896;2022-09-30T13:36:58;7.50;;;6.53;;
5125;SDS011;63008;53.112;8.896;2022-09-30T13:39:06;8.23;;;7.03;;
5125;SDS011;63008;53.112;8.896;2022-09-30T13:41:19;6.90;;;6.13;;
5125;SDS011;63008;53.112;8.896;2022-09-30T13:45:47;7.90;;;7.10;;
5125;SDS011;63008;53.112;8.896;2022-09-30T13:52:33;7.87;;;5.43;;
5125;SDS011;63008;53.112;8.896;2022-09-30T13:54:38;10.10;;;6.73;;
5125;SDS011;63008;53.112;8.896;2022-09-30T13:56:45;8.10;;;5.63;;
5125;SDS011;63008;53.112;8.896;2022-09-30T14:01:16;4.93;;;4.50;;
5125;SDS011;63008;53.112;8.896;2022-09-30T14:03:55;5.80;;;5.27;;
5125;SDS011;63008;53.112;8.896;2022-09-30T14:06:01;6.20;;;5.60;;
5125;SDS011;63008;53.112;8.896;2022-09-30T14:08:15;5.10;;;4.70;;
5125;SDS011;63008;53.112;8.896;2022-09-30T14:21:57;4.97;;;4.50;;
5125;SDS011;63008;53.112;8.896;2022-09-30T14:24:10;4.83;;;4.43;;
5125;SDS011;63008;53.112;8.896;2022-09-30T14:26:31;4.63;;;4.23;;
5125;SDS011;63008;53.112;8.896;2022-09-30T14:28:41;4.77;;;4.37;;
5125;SDS011;63008;53.112;8.896;2022-09-30T14:30:48;11.20;;;4.60;;
5125;SDS011;63008;53.112;8.896;2022-09-30T14:33:13;9.30;;;4.97;;
5125;SDS011;63008;53.112;8.896;2022-09-30T14:35:28;8.73;;;4.10;;
5125;SDS011;63008;53.112;8.896;2022-09-30T14:37:34;4.30;;;4.00;;
5125;SDS011;63008;53.112;8.896;2022-09-30T14:39:43;4.80;;;4.40;;
5125;SDS011;63008;53.112;8.896;2022-09-30T14:41:48;4.33;;;3.93;;
5125;SDS011;63008;53.112;8.896;2022-09-30T14:43:54;5.10;;;3.80;;
5125;SDS011;63008;53.112;8.896;2022-09-30T14:45:58;4.30;;;3.90;;
5125;SDS011;63008;53.112;8.896;2022-09-30T14:48:05;5.23;;;4.73;;
5125;SDS011;63008;53.112;8.896;2022-09-30T14:50:10;5.77;;;4.23;;
5125;SDS011;63008;53.112;8.896;2022-09-30T14:54:47;4.83;;;4.00;;
5125;SDS011;63008;53.112;8.896;2022-09-30T14:56:49;4.20;;;3.80;;
5125;SDS011;63008;53.112;8.896;2022-09-30T14:58:50;4.20;;;3.90;;
5125;SDS011;63008;53.112;8.896;2022-09-30T15:01:05;5.27;;;4.33;;
5125;SDS011;63008;53.112;8.896;2022-09-30T15:03:11;5.53;;;4.17;;
5125;SDS011;63008;53.112;8.896;2022-09-30T15:05:12;5.77;;;4.13;;
5125;SDS011;63008;53.112;8.896;2022-09-30T15:07:17;12.63;;;4.40;;
5125;SDS011;63008;53.112;8.896;2022-09-30T15:09:22;5.37;;;4.97;;
5125;SDS011;63008;53.112;8.896;2022-09-30T15:11:27;9.50;;;5.17;;
5125;SDS011;63008;53.112;8.896;2022-09-30T15:13:29;4.80;;;4.40;;
5125;SDS011;63008;53.112;8.896;2022-09-30T15:15:33;4.60;;;4.20;;
5125;SDS011;63008;53.112;8.896;2022-09-30T15:17:37;4.87;;;4.47;;
5125;SDS011;63008;53.112;8.896;2022-09-30T15:19:41;6.50;;;4.90;;
5125;SDS011;63008;53.112;8.896;2022-09-30T15:21:43;6.60;;;4.90;;
5125;SDS011;63008;53.112;8.896;2022-09-30T15:23:46;5.93;;;4.33;;
5125;SDS011;63008;53.112;8.896;2022-09-30T15:25:53;8.40;;;4.77;;